sensor_id;sensor_type;location;lat;lon;timestamp;P1;durP1;ratioP1;P2;durP2;ratioP2
57303;SDS011;43150;50.986;18.208;2024-01-11T00:00:16;137.00;;;48.60;;
57303;SDS011;43150;50.986;18.208;2024-01-11T00:02:42;139.90;;;45.60;;
57303;SDS011;43150;50.986;18.208;2024-01-11T00:05:07;156.20;;;55.40;;
57303;SDS011;43150;50.986;18.208;2024-01-11T00:07:33;95.70;;;31.50;;
57303;SDS011;43150;50.986;18.208;2024-01-11T00:10:00;137.30;;;45.30;;
57303;SDS011;43150;50.986;18.208;2024-01-11T00:12:25;139.80;;;42.60;;
57303;SDS011;43150;50.986;18.208;2024-01-11T00:14:51;166.30;;;50.80;;
57303;SDS011;43150;50.986;18.208;2024-01-11T00:17:16;147.10;;;44.00;;
57303;SDS011;43150;50.986;18.208;2024-01-11T00:19:42;94.60;;;42.50;;
57303;SDS011;43150;50.986;18.208;2024-01-11T00:22:07;152.80;;;47.40;;
57303;SDS011;43150;50.986;18.208;2024-01-11T00:24:32;161.40;;;47.70;;
57303;SDS011;43150;50.986;18.208;2024-01-11T00:26:58;184.60;;;53.90;;
57303;SDS011;43150;50.986;18.208;2024-01-11T00:29:23;141.60;;;42.90;;
57303;SDS011;43150;50.986;18.208;2024-01-11T00:31:49;120.00;;;43.20;;
57303;SDS011;43150;50.986;18.208;2024-01-11T00:34:15;91.90;;;34.80;;
57303;SDS011;43150;50.986;18.208;2024-01-11T00:36:41;155.00;;;47.40;;
57303;SDS011;43150;50.986;18.208;2024-01-11T00:39:06;121.10;;;39.30;;
57303;SDS011;43150;50.986;18.208;2024-01-11T00:41:32;139.00;;;47.50;;
57303;SDS011;43150;50.986;18.208;2024-01-11T00:43:57;130.70;;;43.50;;
57303;SDS011;43150;50.986;18.208;2024-01-11T00:46:23;80.60;;;32.40;;
57303;SDS011;43150;50.986;18.208;2024-01-11T00:48:48;216.00;;;58.30;;
57303;SDS011;43150;50.986;18.208;2024-01-11T00:51:14;149.80;;;53.00;;
57303;SDS011;43150;50.986;18.208;2024-01-11T00:53:40;133.80;;;42.90;;
57303;SDS011;43150;50.986;18.208;2024-01-11T00:56:14;133.00;;;40.10;;
57303;SDS011;43150;50.986;18.208;2024-01-11T00:58:40;220.00;;;57.70;;
57303;SDS011;43150;50.986;18.208;2024-01-11T01:01:08;122.50;;;42.40;;
57303;SDS011;43150;50.986;18.208;2024-01-11T01:03:34;130.90;;;50.10;;
57303;SDS011;43150;50.986;18.208;2024-01-11T01:06:02;129.70;;;46.50;;
57303;SDS011;43150;50.986;18.208;2024-01-11T01:08:28;123.10;;;40.80;;
57303;SDS011;43150;50.986;18.208;2024-01-11T01:10:54;169.80;;;46.80;;
57303;SDS011;43150;50.986;18.208;2024-01-11T01:13:19;107.80;;;34.50;;
57303;SDS011;43150;50.986;18.208;2024-01-11T01:15:45;64.30;;;29.20;;
57303;SDS011;43150;50.986;18.208;2024-01-11T01:18:11;156.10;;;45.40;;
57303;SDS011;43150;50.986;18.208;2024-01-11T01:20:36;145.20;;;48.50;;
57303;SDS011;43150;50.986;18.208;2024-01-11T01:23:02;116.00;;;44.20;;
57303;SDS011;43150;50.986;18.208;2024-01-11T01:25:27;110.60;;;37.50;;
57303;SDS011;43150;50.986;18.208;2024-01-11T01:27:53;107.80;;;43.10;;
57303;SDS011;43150;50.986;18.208;2024-01-11T01:30:18;117.80;;;41.20;;
57303;SDS011;43150;50.986;18.208;2024-01-11T01:32:44;116.60;;;39.60;;
57303;SDS011;43150;50.986;18.208;2024-01-11T01:35:09;88.70;;;34.50;;
57303;SDS011;43150;50.986;18.208;2024-01-11T01:37:35;111.70;;;34.80;;
57303;SDS011;43150;50.986;18.208;2024-01-11T01:40:00;92.40;;;30.80;;
57303;SDS011;43150;50.986;18.208;2024-01-11T01:42:26;65.20;;;31.90;;
57303;SDS011;43150;50.986;18.208;2024-01-11T01:44:51;122.00;;;40.20;;
57303;SDS011;43150;50.986;18.208;2024-01-11T01:47:17;101.10;;;37.60;;
57303;SDS011;43150;50.986;18.208;2024-01-11T01:49:43;78.30;;;34.20;;
57303;SDS011;43150;50.986;18.208;2024-01-11T01:52:09;90.40;;;32.00;;
57303;SDS011;43150;50.986;18.208;2024-01-11T01:54:36;122.40;;;37.60;;
57303;SDS011;43150;50.986;18.208;2024-01-11T01:57:02;62.70;;;24.80;;
57303;SDS011;43150;50.986;18.208;2024-01-11T01:59:28;101.60;;;33.30;;
57303;SDS011;43150;50.986;18.208;2024-01-11T02:01:54;101.90;;;37.40;;
57303;SDS011;43150;50.986;18.208;2024-01-11T02:04:20;132.30;;;45.40;;
57303;SDS011;43150;50.986;18.208;2024-01-11T02:06:46;136.80;;;43.00;;
57303;SDS011;43150;50.986;18.208;2024-01-11T02:09:12;107.30;;;34.80;;
57303;SDS011;43150;50.986;18.208;2024-01-11T02:11:39;141.10;;;41.30;;
57303;SDS011;43150;50.986;18.208;2024-01-11T02:14:06;169.40;;;47.90;;
57303;SDS011;43150;50.986;18.208;2024-01-11T02:16:32;124.70;;;45.40;;
57303;SDS011;43150;50.986;18.208;2024-01-11T02:18:57;130.20;;;40.70;;
57303;SDS011;43150;50.986;18.208;2024-01-11T02:21:23;91.20;;;28.60;;
57303;SDS011;43150;50.986;18.208;2024-01-11T02:26:20;165.90;;;51.20;;
57303;SDS011;43150;50.986;18.208;2024-01-11T02:28:47;100.00;;;36.20;;
57303;SDS011;43150;50.986;18.208;2024-01-11T02:31:13;66.30;;;29.10;;
57303;SDS011;43150;50.986;18.208;2024-01-11T02:33:39;101.30;;;37.60;;
57303;SDS011;43150;50.986;18.208;2024-01-11T02:36:05;72.90;;;30.50;;
57303;SDS011;43150;50.986;18.208;2024-01-11T02:38:31;103.70;;;36.10;;
57303;SDS011;43150;50.986;18.208;2024-01-11T02:40:59;159.00;;;48.40;;
57303;SDS011;43150;50.986;18.208;2024-01-11T02:43:25;130.20;;;43.00;;
57303;SDS011;43150;50.986;18.208;2024-01-11T02:45:54;222.60;;;63.10;;
57303;SDS011;43150;50.986;18.208;2024-01-11T02:48:20;150.60;;;43.30;;
57303;SDS011;43150;50.986;18.208;2024-01-11T02:50:45;199.40;;;55.90;;
57303;SDS011;43150;50.986;18.208;2024-01-11T02:53:11;103.20;;;39.40;;
57303;SDS011;43150;50.986;18.208;2024-01-11T02:55:36;116.70;;;41.70;;
57303;SDS011;43150;50.986;18.208;2024-01-11T02:58:02;147.60;;;40.70;;
57303;SDS011;43150;50.986;18.208;2024-01-11T03:00:28;124.00;;;34.60;;
57303;SDS011;43150;50.986;18.208;2024-01-11T03:02:53;146.90;;;48.30;;
57303;SDS011;43150;50.986;18.208;2024-01-11T03:05:19;147.00;;;45.10;;
57303;SDS011;43150;50.986;18.208;2024-01-11T03:07:44;155.10;;;46.20;;
57303;SDS011;43150;50.986;18.208;2024-01-11T03:10:10;137.10;;;47.30;;
57303;SDS011;43150;50.986;18.208;2024-01-11T03:12:35;174.90;;;52.90;;
57303;SDS011;43150;50.986;18.208;2024-01-11T03:15:01;182.80;;;55.80;;
57303;SDS011;43150;50.986;18.208;2024-01-11T03:17:26;174.70;;;54.30;;
57303;SDS011;43150;50.986;18.208;2024-01-11T03:19:52;258.60;;;75.50;;
57303;SDS011;43150;50.986;18.208;2024-01-11T03:22:17;176.50;;;53.70;;
57303;SDS011;43150;50.986;18.208;2024-01-11T03:24:43;125.20;;;39.80;;
57303;SDS011;43150;50.986;18.208;2024-01-11T03:27:08;104.20;;;35.30;;
57303;SDS011;43150;50.986;18.208;2024-01-11T03:29:34;148.90;;;45.60;;
57303;SDS011;43150;50.986;18.208;2024-01-11T03:31:59;141.70;;;40.30;;
57303;SDS011;43150;50.986;18.208;2024-01-11T03:34:25;168.60;;;50.70;;
57303;SDS011;43150;50.986;18.208;2024-01-11T03:36:50;117.10;;;36.50;;
57303;SDS011;43150;50.986;18.208;2024-01-11T03:39:16;106.40;;;36.70;;
57303;SDS011;43150;50.986;18.208;2024-01-11T03:41:44;140.40;;;46.70;;
57303;SDS011;43150;50.986;18.208;2024-01-11T03:44:10;104.80;;;38.00;;
57303;SDS011;43150;50.986;18.208;2024-01-11T03:46:36;124.40;;;43.80;;
57303;SDS011;43150;50.986;18.208;2024-01-11T03:49:02;114.20;;;40.80;;
57303;SDS011;43150;50.986;18.208;2024-01-11T03:51:27;110.10;;;35.50;;
57303;SDS011;43150;50.986;18.208;2024-01-11T03:53:53;104.30;;;37.70;;
57303;SDS011;43150;50.986;18.208;2024-01-11T03:56:18;67.50;;;26.30;;
57303;SDS011;43150;50.986;18.208;2024-01-11T03:58:44;121.40;;;37.40;;
57303;SDS011;43150;50.986;18.208;2024-01-11T04:01:10;105.50;;;36.70;;
57303;SDS011;43150;50.986;18.208;2024-01-11T04:03:36;102.00;;;37.90;;
57303;SDS011;43150;50.986;18.208;2024-01-11T04:06:03;107.80;;;37.30;;
57303;SDS011;43150;50.986;18.208;2024-01-11T04:08:29;172.20;;;55.60;;
57303;SDS011;43150;50.986;18.208;2024-01-11T04:10:54;123.90;;;41.40;;
57303;SDS011;43150;50.986;18.208;2024-01-11T04:13:21;132.40;;;42.90;;
57303;SDS011;43150;50.986;18.208;2024-01-11T04:15:47;119.80;;;41.90;;
57303;SDS011;43150;50.986;18.208;2024-01-11T04:18:12;94.10;;;38.10;;
57303;SDS011;43150;50.986;18.208;2024-01-11T04:20:38;133.20;;;41.60;;
57303;SDS011;43150;50.986;18.208;2024-01-11T04:23:03;175.70;;;53.80;;
57303;SDS011;43150;50.986;18.208;2024-01-11T04:25:28;79.90;;;36.00;;
57303;SDS011;43150;50.986;18.208;2024-01-11T04:27:54;140.30;;;46.90;;
57303;SDS011;43150;50.986;18.208;2024-01-11T04:30:19;137.70;;;44.50;;
57303;SDS011;43150;50.986;18.208;2024-01-11T04:32:45;178.40;;;49.50;;
57303;SDS011;43150;50.986;18.208;2024-01-11T04:35:10;186.40;;;55.00;;
57303;SDS011;43150;50.986;18.208;2024-01-11T04:37:54;181.10;;;59.90;;
57303;SDS011;43150;50.986;18.208;2024-01-11T04:40:19;171.60;;;55.90;;
57303;SDS011;43150;50.986;18.208;2024-01-11T04:42:44;171.10;;;56.10;;
57303;SDS011;43150;50.986;18.208;2024-01-11T04:45:10;165.80;;;49.00;;
57303;SDS011;43150;50.986;18.208;2024-01-11T04:47:35;134.60;;;45.40;;
57303;SDS011;43150;50.986;18.208;2024-01-11T04:50:03;109.70;;;38.40;;
57303;SDS011;43150;50.986;18.208;2024-01-11T04:52:30;81.30;;;27.20;;
57303;SDS011;43150;50.986;18.208;2024-01-11T04:54:55;119.40;;;44.40;;
57303;SDS011;43150;50.986;18.208;2024-01-11T04:57:21;125.70;;;38.40;;
57303;SDS011;43150;50.986;18.208;2024-01-11T04:59:46;78.60;;;29.50;;
57303;SDS011;43150;50.986;18.208;2024-01-11T05:02:12;89.20;;;31.30;;
57303;SDS011;43150;50.986;18.208;2024-01-11T05:04:37;160.20;;;43.90;;
57303;SDS011;43150;50.986;18.208;2024-01-11T05:07:03;130.90;;;48.10;;
57303;SDS011;43150;50.986;18.208;2024-01-11T05:09:28;109.50;;;42.10;;
57303;SDS011;43150;50.986;18.208;2024-01-11T05:11:54;101.00;;;40.60;;
57303;SDS011;43150;50.986;18.208;2024-01-11T05:14:20;94.90;;;38.90;;
57303;SDS011;43150;50.986;18.208;2024-01-11T05:16:46;145.80;;;42.90;;
57303;SDS011;43150;50.986;18.208;2024-01-11T05:19:12;95.40;;;30.60;;
57303;SDS011;43150;50.986;18.208;2024-01-11T05:21:37;213.60;;;64.10;;
57303;SDS011;43150;50.986;18.208;2024-01-11T05:24:03;179.60;;;57.10;;
57303;SDS011;43150;50.986;18.208;2024-01-11T05:26:28;116.50;;;39.20;;
57303;SDS011;43150;50.986;18.208;2024-01-11T05:28:54;129.60;;;42.80;;
57303;SDS011;43150;50.986;18.208;2024-01-11T05:31:19;86.90;;;32.30;;
57303;SDS011;43150;50.986;18.208;2024-01-11T05:33:45;121.70;;;39.20;;
57303;SDS011;43150;50.986;18.208;2024-01-11T05:36:11;104.00;;;35.10;;
57303;SDS011;43150;50.986;18.208;2024-01-11T05:38:37;109.70;;;39.10;;
57303;SDS011;43150;50.986;18.208;2024-01-11T05:41:03;76.30;;;35.10;;
57303;SDS011;43150;50.986;18.208;2024-01-11T05:43:29;102.60;;;38.50;;
57303;SDS011;43150;50.986;18.208;2024-01-11T05:45:54;166.60;;;48.70;;
57303;SDS011;43150;50.986;18.208;2024-01-11T05:48:19;90.90;;;32.50;;
57303;SDS011;43150;50.986;18.208;2024-01-11T05:50:45;138.20;;;43.90;;
57303;SDS011;43150;50.986;18.208;2024-01-11T05:53:11;150.60;;;43.10;;
57303;SDS011;43150;50.986;18.208;2024-01-11T05:55:37;92.10;;;32.30;;
57303;SDS011;43150;50.986;18.208;2024-01-11T05:58:03;113.70;;;35.20;;
57303;SDS011;43150;50.986;18.208;2024-01-11T06:00:29;81.90;;;32.70;;
57303;SDS011;43150;50.986;18.208;2024-01-11T06:02:55;99.30;;;30.80;;
57303;SDS011;43150;50.986;18.208;2024-01-11T06:05:20;99.40;;;34.70;;
57303;SDS011;43150;50.986;18.208;2024-01-11T06:07:46;95.60;;;33.10;;
57303;SDS011;43150;50.986;18.208;2024-01-11T06:10:13;62.40;;;21.80;;
57303;SDS011;43150;50.986;18.208;2024-01-11T06:12:38;86.70;;;32.20;;
57303;SDS011;43150;50.986;18.208;2024-01-11T06:15:04;170.70;;;46.50;;
57303;SDS011;43150;50.986;18.208;2024-01-11T06:17:30;128.00;;;44.20;;
57303;SDS011;43150;50.986;18.208;2024-01-11T06:19:55;105.10;;;37.80;;
57303;SDS011;43150;50.986;18.208;2024-01-11T06:22:21;40.90;;;22.50;;
57303;SDS011;43150;50.986;18.208;2024-01-11T06:24:46;113.90;;;33.70;;
57303;SDS011;43150;50.986;18.208;2024-01-11T06:27:12;149.60;;;43.90;;
57303;SDS011;43150;50.986;18.208;2024-01-11T06:29:37;82.00;;;27.70;;
57303;SDS011;43150;50.986;18.208;2024-01-11T06:32:06;87.60;;;32.10;;
57303;SDS011;43150;50.986;18.208;2024-01-11T06:34:32;128.50;;;38.50;;
57303;SDS011;43150;50.986;18.208;2024-01-11T06:36:57;116.70;;;38.20;;
57303;SDS011;43150;50.986;18.208;2024-01-11T06:39:23;131.50;;;42.60;;
57303;SDS011;43150;50.986;18.208;2024-01-11T06:41:48;75.40;;;30.20;;
57303;SDS011;43150;50.986;18.208;2024-01-11T06:44:14;77.20;;;27.10;;
57303;SDS011;43150;50.986;18.208;2024-01-11T06:46:39;89.60;;;34.50;;
57303;SDS011;43150;50.986;18.208;2024-01-11T06:49:07;98.00;;;35.60;;
57303;SDS011;43150;50.986;18.208;2024-01-11T06:51:32;138.10;;;45.40;;
57303;SDS011;43150;50.986;18.208;2024-01-11T06:53:59;83.80;;;30.70;;
57303;SDS011;43150;50.986;18.208;2024-01-11T06:56:26;112.70;;;39.30;;
57303;SDS011;43150;50.986;18.208;2024-01-11T06:58:52;142.40;;;46.00;;
57303;SDS011;43150;50.986;18.208;2024-01-11T07:01:17;103.00;;;36.00;;
57303;SDS011;43150;50.986;18.208;2024-01-11T07:03:44;121.10;;;42.60;;
57303;SDS011;43150;50.986;18.208;2024-01-11T07:06:09;118.40;;;40.40;;
57303;SDS011;43150;50.986;18.208;2024-01-11T07:08:35;132.80;;;42.50;;
57303;SDS011;43150;50.986;18.208;2024-01-11T07:11:01;58.50;;;24.70;;
57303;SDS011;43150;50.986;18.208;2024-01-11T07:13:29;103.60;;;39.30;;
57303;SDS011;43150;50.986;18.208;2024-01-11T07:15:55;114.80;;;34.80;;
57303;SDS011;43150;50.986;18.208;2024-01-11T07:18:22;82.50;;;32.70;;
57303;SDS011;43150;50.986;18.208;2024-01-11T07:20:48;110.80;;;38.50;;
57303;SDS011;43150;50.986;18.208;2024-01-11T07:23:14;83.70;;;32.80;;
57303;SDS011;43150;50.986;18.208;2024-01-11T07:25:40;116.30;;;37.40;;
57303;SDS011;43150;50.986;18.208;2024-01-11T07:28:06;150.20;;;40.90;;
57303;SDS011;43150;50.986;18.208;2024-01-11T07:30:32;105.80;;;34.00;;
57303;SDS011;43150;50.986;18.208;2024-01-11T07:32:57;55.60;;;27.40;;
57303;SDS011;43150;50.986;18.208;2024-01-11T07:35:23;77.10;;;27.40;;
57303;SDS011;43150;50.986;18.208;2024-01-11T07:37:49;101.40;;;34.80;;
57303;SDS011;43150;50.986;18.208;2024-01-11T07:40:15;96.50;;;30.10;;
57303;SDS011;43150;50.986;18.208;2024-01-11T07:42:42;64.90;;;24.40;;
57303;SDS011;43150;50.986;18.208;2024-01-11T07:45:07;65.50;;;29.40;;
57303;SDS011;43150;50.986;18.208;2024-01-11T07:47:35;98.00;;;34.30;;
57303;SDS011;43150;50.986;18.208;2024-01-11T07:50:01;66.90;;;27.60;;
57303;SDS011;43150;50.986;18.208;2024-01-11T07:52:28;57.40;;;24.90;;
57303;SDS011;43150;50.986;18.208;2024-01-11T07:54:54;117.30;;;40.60;;
57303;SDS011;43150;50.986;18.208;2024-01-11T07:57:20;94.50;;;33.60;;
57303;SDS011;43150;50.986;18.208;2024-01-11T07:59:45;100.30;;;32.80;;
57303;SDS011;43150;50.986;18.208;2024-01-11T08:02:11;127.80;;;38.20;;
57303;SDS011;43150;50.986;18.208;2024-01-11T08:04:36;73.70;;;25.20;;
57303;SDS011;43150;50.986;18.208;2024-01-11T08:07:04;56.20;;;26.90;;
57303;SDS011;43150;50.986;18.208;2024-01-11T08:09:29;104.40;;;34.10;;
57303;SDS011;43150;50.986;18.208;2024-01-11T08:11:55;63.40;;;26.40;;
57303;SDS011;43150;50.986;18.208;2024-01-11T08:14:21;95.80;;;34.30;;
57303;SDS011;43150;50.986;18.208;2024-01-11T08:16:46;101.50;;;33.80;;
57303;SDS011;43150;50.986;18.208;2024-01-11T08:19:12;108.00;;;34.10;;
57303;SDS011;43150;50.986;18.208;2024-01-11T08:21:39;104.30;;;38.10;;
57303;SDS011;43150;50.986;18.208;2024-01-11T08:24:05;64.90;;;27.80;;
57303;SDS011;43150;50.986;18.208;2024-01-11T08:26:31;78.90;;;31.90;;
57303;SDS011;43150;50.986;18.208;2024-01-11T08:28:57;103.70;;;34.70;;
57303;SDS011;43150;50.986;18.208;2024-01-11T08:31:22;110.60;;;35.00;;
57303;SDS011;43150;50.986;18.208;2024-01-11T08:33:48;65.80;;;27.60;;
57303;SDS011;43150;50.986;18.208;2024-01-11T08:36:13;81.30;;;28.30;;
57303;SDS011;43150;50.986;18.208;2024-01-11T08:38:39;75.70;;;29.60;;
57303;SDS011;43150;50.986;18.208;2024-01-11T08:41:06;82.70;;;31.00;;
57303;SDS011;43150;50.986;18.208;2024-01-11T08:43:31;73.90;;;31.70;;
57303;SDS011;43150;50.986;18.208;2024-01-11T08:45:58;81.50;;;31.40;;
57303;SDS011;43150;50.986;18.208;2024-01-11T08:48:23;85.50;;;30.40;;
57303;SDS011;43150;50.986;18.208;2024-01-11T08:50:49;69.30;;;28.40;;
57303;SDS011;43150;50.986;18.208;2024-01-11T08:53:14;53.00;;;23.10;;
57303;SDS011;43150;50.986;18.208;2024-01-11T08:55:41;80.50;;;30.10;;
57303;SDS011;43150;50.986;18.208;2024-01-11T08:58:08;57.40;;;27.30;;
57303;SDS011;43150;50.986;18.208;2024-01-11T09:00:33;74.60;;;30.70;;
57303;SDS011;43150;50.986;18.208;2024-01-11T09:02:59;66.80;;;26.80;;
57303;SDS011;43150;50.986;18.208;2024-01-11T09:05:25;72.30;;;27.80;;
57303;SDS011;43150;50.986;18.208;2024-01-11T09:07:50;58.80;;;26.50;;
57303;SDS011;43150;50.986;18.208;2024-01-11T09:10:15;49.90;;;21.80;;
57303;SDS011;43150;50.986;18.208;2024-01-11T09:12:41;55.30;;;23.80;;
57303;SDS011;43150;50.986;18.208;2024-01-11T09:15:07;51.50;;;22.30;;
57303;SDS011;43150;50.986;18.208;2024-01-11T09:17:32;45.80;;;20.90;;
57303;SDS011;43150;50.986;18.208;2024-01-11T09:19:58;50.20;;;21.70;;
57303;SDS011;43150;50.986;18.208;2024-01-11T09:22:23;50.10;;;22.70;;
57303;SDS011;43150;50.986;18.208;2024-01-11T09:24:50;40.40;;;16.10;;
57303;SDS011;43150;50.986;18.208;2024-01-11T09:27:15;51.00;;;21.80;;
57303;SDS011;43150;50.986;18.208;2024-01-11T09:29:44;32.50;;;14.70;;
57303;SDS011;43150;50.986;18.208;2024-01-11T09:32:26;47.00;;;19.10;;
57303;SDS011;43150;50.986;18.208;2024-01-11T09:34:51;33.10;;;16.30;;
57303;SDS011;43150;50.986;18.208;2024-01-11T09:37:17;38.40;;;17.80;;
57303;SDS011;43150;50.986;18.208;2024-01-11T09:39:43;48.30;;;20.50;;
57303;SDS011;43150;50.986;18.208;2024-01-11T09:42:09;47.70;;;20.30;;
57303;SDS011;43150;50.986;18.208;2024-01-11T09:44:35;40.30;;;17.10;;
57303;SDS011;43150;50.986;18.208;2024-01-11T09:47:02;35.20;;;15.60;;
57303;SDS011;43150;50.986;18.208;2024-01-11T09:49:30;43.90;;;19.20;;
57303;SDS011;43150;50.986;18.208;2024-01-11T09:51:57;40.80;;;20.80;;
57303;SDS011;43150;50.986;18.208;2024-01-11T09:54:23;36.70;;;16.20;;
57303;SDS011;43150;50.986;18.208;2024-01-11T09:56:50;36.20;;;15.30;;
57303;SDS011;43150;50.986;18.208;2024-01-11T09:59:17;34.70;;;18.50;;
57303;SDS011;43150;50.986;18.208;2024-01-11T10:01:43;33.80;;;15.80;;
57303;SDS011;43150;50.986;18.208;2024-01-11T10:04:09;43.10;;;19.50;;
57303;SDS011;43150;50.986;18.208;2024-01-11T10:06:35;45.10;;;16.60;;
57303;SDS011;43150;50.986;18.208;2024-01-11T10:09:01;45.30;;;20.70;;
57303;SDS011;43150;50.986;18.208;2024-01-11T10:11:28;37.50;;;18.40;;
57303;SDS011;43150;50.986;18.208;2024-01-11T10:13:56;28.10;;;14.30;;
57303;SDS011;43150;50.986;18.208;2024-01-11T10:16:23;40.70;;;17.00;;
57303;SDS011;43150;50.986;18.208;2024-01-11T10:18:49;30.60;;;15.00;;
57303;SDS011;43150;50.986;18.208;2024-01-11T10:21:15;51.80;;;22.60;;
57303;SDS011;43150;50.986;18.208;2024-01-11T10:23:40;30.00;;;12.70;;
57303;SDS011;43150;50.986;18.208;2024-01-11T10:26:06;39.70;;;17.30;;
57303;SDS011;43150;50.986;18.208;2024-01-11T10:28:35;34.60;;;17.30;;
57303;SDS011;43150;50.986;18.208;2024-01-11T10:31:04;22.60;;;12.00;;
57303;SDS011;43150;50.986;18.208;2024-01-11T10:33:33;30.50;;;13.80;;
57303;SDS011;43150;50.986;18.208;2024-01-11T10:36:00;29.30;;;13.10;;
57303;SDS011;43150;50.986;18.208;2024-01-11T10:38:25;24.00;;;10.60;;
57303;SDS011;43150;50.986;18.208;2024-01-11T10:40:51;44.00;;;20.40;;
57303;SDS011;43150;50.986;18.208;2024-01-11T10:43:19;41.60;;;19.10;;
57303;SDS011;43150;50.986;18.208;2024-01-11T10:45:48;28.70;;;10.90;;
57303;SDS011;43150;50.986;18.208;2024-01-11T10:48:14;35.20;;;18.00;;
57303;SDS011;43150;50.986;18.208;2024-01-11T10:50:43;28.30;;;14.40;;
57303;SDS011;43150;50.986;18.208;2024-01-11T10:55:47;29.90;;;15.30;;
57303;SDS011;43150;50.986;18.208;2024-01-11T10:58:13;29.30;;;11.10;;
57303;SDS011;43150;50.986;18.208;2024-01-11T11:00:39;42.50;;;17.20;;
57303;SDS011;43150;50.986;18.208;2024-01-11T11:03:05;34.50;;;15.60;;
57303;SDS011;43150;50.986;18.208;2024-01-11T11:05:32;33.00;;;15.90;;
57303;SDS011;43150;50.986;18.208;2024-01-11T11:08:01;29.60;;;13.20;;
57303;SDS011;43150;50.986;18.208;2024-01-11T11:10:27;36.30;;;17.00;;
57303;SDS011;43150;50.986;18.208;2024-01-11T11:12:53;38.80;;;17.60;;
57303;SDS011;43150;50.986;18.208;2024-01-11T11:15:19;31.00;;;15.20;;
57303;SDS011;43150;50.986;18.208;2024-01-11T11:17:45;26.40;;;12.50;;
57303;SDS011;43150;50.986;18.208;2024-01-11T11:20:11;34.70;;;15.30;;
57303;SDS011;43150;50.986;18.208;2024-01-11T11:22:37;27.80;;;14.50;;
57303;SDS011;43150;50.986;18.208;2024-01-11T11:25:08;27.10;;;13.70;;
57303;SDS011;43150;50.986;18.208;2024-01-11T11:27:34;37.60;;;17.40;;
57303;SDS011;43150;50.986;18.208;2024-01-11T11:30:00;34.60;;;14.60;;
57303;SDS011;43150;50.986;18.208;2024-01-11T11:32:35;36.70;;;16.60;;
57303;SDS011;43150;50.986;18.208;2024-01-11T11:35:01;31.40;;;14.60;;
57303;SDS011;43150;50.986;18.208;2024-01-11T11:37:29;30.00;;;13.00;;
57303;SDS011;43150;50.986;18.208;2024-01-11T11:39:54;30.30;;;16.00;;
57303;SDS011;43150;50.986;18.208;2024-01-11T11:42:22;29.40;;;14.20;;
57303;SDS011;43150;50.986;18.208;2024-01-11T11:44:48;34.80;;;14.70;;
57303;SDS011;43150;50.986;18.208;2024-01-11T11:47:19;29.10;;;14.40;;
57303;SDS011;43150;50.986;18.208;2024-01-11T11:52:14;27.60;;;12.20;;
57303;SDS011;43150;50.986;18.208;2024-01-11T11:54:41;35.20;;;15.00;;
57303;SDS011;43150;50.986;18.208;2024-01-11T11:57:08;31.10;;;15.30;;
57303;SDS011;43150;50.986;18.208;2024-01-11T11:59:35;28.70;;;14.00;;
57303;SDS011;43150;50.986;18.208;2024-01-11T12:02:01;24.80;;;10.30;;
57303;SDS011;43150;50.986;18.208;2024-01-11T12:04:27;31.90;;;15.00;;
57303;SDS011;43150;50.986;18.208;2024-01-11T12:06:52;22.10;;;10.20;;
57303;SDS011;43150;50.986;18.208;2024-01-11T12:09:19;26.80;;;11.70;;
57303;SDS011;43150;50.986;18.208;2024-01-11T12:11:47;32.40;;;15.20;;
57303;SDS011;43150;50.986;18.208;2024-01-11T12:14:13;36.90;;;14.00;;
57303;SDS011;43150;50.986;18.208;2024-01-11T12:16:39;28.30;;;13.30;;
57303;SDS011;43150;50.986;18.208;2024-01-11T12:19:04;32.60;;;14.50;;
57303;SDS011;43150;50.986;18.208;2024-01-11T12:21:31;25.90;;;13.40;;
57303;SDS011;43150;50.986;18.208;2024-01-11T12:23:57;26.50;;;11.30;;
57303;SDS011;43150;50.986;18.208;2024-01-11T12:26:23;27.00;;;12.40;;
57303;SDS011;43150;50.986;18.208;2024-01-11T12:28:48;29.50;;;13.70;;
57303;SDS011;43150;50.986;18.208;2024-01-11T12:31:14;31.70;;;14.90;;
57303;SDS011;43150;50.986;18.208;2024-01-11T12:33:41;31.30;;;15.60;;
57303;SDS011;43150;50.986;18.208;2024-01-11T12:36:08;32.20;;;16.00;;
57303;SDS011;43150;50.986;18.208;2024-01-11T12:38:34;36.00;;;17.10;;
57303;SDS011;43150;50.986;18.208;2024-01-11T12:41:00;34.20;;;16.50;;
57303;SDS011;43150;50.986;18.208;2024-01-11T12:43:26;36.80;;;16.20;;
57303;SDS011;43150;50.986;18.208;2024-01-11T12:45:51;30.80;;;14.30;;
57303;SDS011;43150;50.986;18.208;2024-01-11T12:48:17;35.50;;;15.60;;
57303;SDS011;43150;50.986;18.208;2024-01-11T12:50:44;29.60;;;13.30;;
57303;SDS011;43150;50.986;18.208;2024-01-11T12:53:10;25.30;;;12.10;;
57303;SDS011;43150;50.986;18.208;2024-01-11T12:55:45;22.90;;;12.10;;
57303;SDS011;43150;50.986;18.208;2024-01-11T12:58:11;25.40;;;13.20;;
57303;SDS011;43150;50.986;18.208;2024-01-11T13:00:36;23.50;;;12.00;;
57303;SDS011;43150;50.986;18.208;2024-01-11T13:03:03;19.80;;;9.40;;
57303;SDS011;43150;50.986;18.208;2024-01-11T13:05:29;32.90;;;12.80;;
57303;SDS011;43150;50.986;18.208;2024-01-11T13:08:03;21.50;;;10.60;;
57303;SDS011;43150;50.986;18.208;2024-01-11T13:10:33;30.30;;;12.00;;
57303;SDS011;43150;50.986;18.208;2024-01-11T13:12:59;22.30;;;12.30;;
57303;SDS011;43150;50.986;18.208;2024-01-11T13:15:25;18.80;;;8.80;;
57303;SDS011;43150;50.986;18.208;2024-01-11T13:17:51;28.80;;;14.10;;
57303;SDS011;43150;50.986;18.208;2024-01-11T13:20:16;27.40;;;10.90;;
57303;SDS011;43150;50.986;18.208;2024-01-11T13:22:43;19.20;;;10.10;;
57303;SDS011;43150;50.986;18.208;2024-01-11T13:25:08;26.50;;;12.40;;
57303;SDS011;43150;50.986;18.208;2024-01-11T13:27:34;21.30;;;10.00;;
57303;SDS011;43150;50.986;18.208;2024-01-11T13:30:00;24.60;;;12.00;;
57303;SDS011;43150;50.986;18.208;2024-01-11T13:32:26;20.90;;;11.00;;
57303;SDS011;43150;50.986;18.208;2024-01-11T13:34:51;25.20;;;13.90;;
57303;SDS011;43150;50.986;18.208;2024-01-11T13:37:20;18.00;;;9.70;;
57303;SDS011;43150;50.986;18.208;2024-01-11T13:39:45;29.70;;;11.40;;
57303;SDS011;43150;50.986;18.208;2024-01-11T13:42:11;23.60;;;12.40;;
57303;SDS011;43150;50.986;18.208;2024-01-11T13:44:38;25.70;;;9.90;;
57303;SDS011;43150;50.986;18.208;2024-01-11T13:47:03;21.40;;;9.90;;
57303;SDS011;43150;50.986;18.208;2024-01-11T13:49:29;28.40;;;13.50;;
57303;SDS011;43150;50.986;18.208;2024-01-11T13:51:54;29.60;;;13.30;;
57303;SDS011;43150;50.986;18.208;2024-01-11T13:54:19;18.20;;;8.80;;
57303;SDS011;43150;50.986;18.208;2024-01-11T13:56:47;21.20;;;10.10;;
57303;SDS011;43150;50.986;18.208;2024-01-11T13:59:13;30.00;;;13.60;;
57303;SDS011;43150;50.986;18.208;2024-01-11T14:01:38;21.30;;;9.90;;
57303;SDS011;43150;50.986;18.208;2024-01-11T14:04:04;21.60;;;11.00;;